Time;durP1;ratioP1;P1;durP2;ratioP2;P2;SDS_P1;SDS_P2;PMS_P1;PMS_P2;Temp;Humidity;BMP_temperature;BMP_pressure;BME280_temperature;BME280_humidity;BME280_pressure;Samples;Min_cycle;Max_cycle;Signal;HPM_P1;HPM_P2
2023/04/22 00:01:23;;;;;;;;;;;;;;;-144.99;71.53;52317.66;5048340;28;20463;-73
2023/04/22 00:03:51;;;;;;;;;;;;;;;-144.99;71.58;52329.88;5045705;28;19992;-66
2023/04/22 00:06:19;;;;;;;;;;;;;;;-144.99;71.24;52285.03;5050684;28;21471;-61
2023/04/22 00:08:46;;;;;;;;;;;;;;;-144.99;71.50;52346.19;5046193;28;20044;-62
2023/04/22 00:11:12;;;;;;;;;;;;;;;-144.99;71.38;52327.84;5051539;28;19928;-62
2023/04/22 00:13:39;;;;;;;;;;;;;;;-144.99;71.25;52311.53;5048474;28;19975;-62
2023/04/22 00:16:05;;;;;;;;;;;;;;;-144.99;71.45;52321.72;5048389;28;19967;-62
2023/04/22 00:18:34;;;;;;;;;;;;;;;-144.99;71.33;52285.03;5045592;28;20111;-60
2023/04/22 00:21:03;;;;;;;;;;;;;;;-144.99;71.58;52297.25;5045311;28;20066;-61
2023/04/22 00:23:30;;;;;;;;;;;;;;;-144.99;71.44;52297.25;5044867;28;19983;-61
2023/04/22 00:25:56;;;;;;;;;;;;;;;-144.99;71.63;52317.66;5047845;28;20187;-61
2023/04/22 00:28:23;;;;;;;;;;;;;;;-144.99;71.45;52344.16;5047647;28;19972;-60
2023/04/22 00:30:49;;;;;;;;;;;;;;;-144.99;71.47;52305.41;5049536;28;19987;-62
2023/04/22 00:33:16;;;;;;;;;;;;;;;-144.99;71.54;52321.72;5047381;28;19928;-61
2023/04/22 00:35:42;;;;;;;;;;;;;;;-144.99;71.58;52344.16;5045301;28;20394;-61
2023/04/22 00:38:10;;;;;;;;;;;;;;;-144.99;71.53;52297.25;5045647;28;19928;-63
2023/04/22 00:40:37;;;;;;;;;;;;;;;-144.99;71.44;52329.88;5046282;28;19959;-63
2023/04/22 00:43:03;;;;;;;;;;;;;;;-144.99;71.64;52358.41;5052968;28;20432;-61
2023/04/22 00:45:30;;;;;;;;;;;;;;;-144.99;71.62;52366.56;5051036;28;20187;-61
2023/04/22 00:47:57;;;;;;;;;;;;;;;-144.99;71.79;52317.66;5050871;28;20037;-60
2023/04/22 00:50:23;;;;;;;;;;;;;;;-144.99;71.65;52346.19;5049789;28;20047;-60
2023/04/22 00:52:50;;;;;;;;;;;;;;;-144.99;71.94;52325.81;5053419;28;20173;-60
2023/04/22 00:55:18;;;;;;;;;;;;;;;-144.99;71.59;52307.47;5047464;28;19936;-60
2023/04/22 00:57:44;;;;;;;;;;;;;;;-144.99;71.79;52342.09;5044493;28;19978;-60
2023/04/22 01:00:11;;;;;;;;;;;;;;;-144.99;71.87;52289.13;5049400;28;20532;-60
2023/04/22 01:02:38;;;;;;;;;;;;;;;-144.99;71.79;52297.25;5056732;28;20401;-60
2023/04/22 01:05:05;;;;;;;;;;;;;;;-144.99;71.91;52329.88;5052085;28;19935;-61
2023/04/22 01:07:31;;;;;;;;;;;;;;;-144.99;71.69;52297.25;5044766;28;19929;-61
2023/04/22 01:09:58;;;;;;;;;;;;;;;-144.99;71.03;52301.34;5051308;28;19968;-63
2023/04/22 01:12:25;;;;;;;;;;;;;;;-144.99;71.08;52333.94;5046350;28;19957;-68
2023/04/22 01:14:52;;;;;;;;;;;;;;;-144.99;71.56;52317.66;5046975;28;20026;-68
2023/04/22 01:17:20;;;;;;;;;;;;;;;-144.99;71.82;52291.16;5046054;28;19932;-67
2023/04/22 01:19:47;;;;;;;;;;;;;;;-144.99;72.03;52289.13;5044300;28;19936;-67
2023/04/22 01:22:14;;;;;;;;;;;;;;;-144.99;71.77;52280.97;5044602;28;19936;-66
2023/04/22 01:24:42;;;;;;;;;;;;;;;-144.99;71.63;52327.84;5044466;28;19928;-69
2023/04/22 01:27:09;;;;;;;;;;;;;;;-144.99;71.83;52358.41;5044033;28;20272;-67
2023/04/22 01:29:36;;;;;;;;;;;;;;;-144.99;71.56;52342.09;5044660;28;19929;-66
2023/04/22 01:32:03;;;;;;;;;;;;;;;-144.99;71.79;52311.53;5057747;28;19932;-68
2023/04/22 01:34:30;;;;;;;;;;;;;;;-144.99;72.20;52301.34;5044403;28;19932;-67
2023/04/22 01:36:56;;;;;;;;;;;;;;;-144.99;72.04;52280.97;5049512;28;19932;-66
2023/04/22 01:39:23;;;;;;;;;;;;;;;-144.99;72.09;52256.50;5048587;28;20463;-62
2023/04/22 01:41:51;;;;;;;;;;;;;;;-144.99;72.15;52305.41;4707925;28;10000241;-64
2023/04/22 01:44:18;;;;;;;;;;;;;;;-144.99;72.16;52333.94;5047993;28;20424;-64
2023/04/22 01:46:45;;;;;;;;;;;;;;;-144.99;72.03;52350.25;5061784;28;19928;-64
2023/04/22 01:49:11;;;;;;;;;;;;;;;-144.99;72.38;52325.81;5048097;28;20369;-64
2023/04/22 01:51:38;;;;;;;;;;;;;;;-144.99;72.10;52325.81;5048928;28;20003;-64
2023/04/22 01:54:05;;;;;;;;;;;;;;;-144.99;71.79;52325.81;5049109;28;20291;-64
2023/04/22 01:56:31;;;;;;;;;;;;;;;-144.99;71.95;52301.34;5053657;28;19979;-64
2023/04/22 01:58:59;;;;;;;;;;;;;;;-144.99;71.76;52352.28;5050565;28;20047;-63
2023/04/22 02:01:26;;;;;;;;;;;;;;;-144.99;72.03;52329.88;5054682;28;20002;-64
2023/04/22 02:03:52;;;;;;;;;;;;;;;-144.99;71.70;52289.13;5051891;28;19928;-64
2023/04/22 02:06:19;;;;;;;;;;;;;;;-144.99;71.47;52301.34;5057219;28;20271;-63
2023/04/22 02:08:45;;;;;;;;;;;;;;;-144.99;71.39;52333.94;5062006;28;19993;-64
2023/04/22 02:11:12;;;;;;;;;;;;;;;-144.99;71.78;52342.09;5054456;28;20012;-64
2023/04/22 02:13:39;;;;;;;;;;;;;;;-144.99;71.79;52293.19;5054154;28;20003;-64
2023/04/22 02:16:08;;;;;;;;;;;;;;;-144.99;71.93;52346.19;5050504;28;19932;-64
2023/04/22 02:18:34;;;;;;;;;;;;;;;-144.99;71.76;52317.66;5051051;28;19925;-63
2023/04/22 02:21:01;;;;;;;;;;;;;;;-144.99;71.96;52321.72;5062628;28;19964;-65
2023/04/22 02:23:28;;;;;;;;;;;;;;;-144.99;72.27;52338.03;5058727;28;19928;-64
2023/04/22 02:25:55;;;;;;;;;;;;;;;-144.99;72.43;52323.75;5053855;28;19960;-64
2023/04/22 02:28:21;;;;;;;;;;;;;;;-144.99;72.26;52309.50;5055211;28;20350;-64
2023/04/22 02:30:48;;;;;;;;;;;;;;;-144.99;72.28;52305.41;5057010;28;20621;-63
2023/04/22 02:33:16;;;;;;;;;;;;;;;-144.99;72.52;52342.09;5055659;28;19928;-65
2023/04/22 02:35:42;;;;;;;;;;;;;;;-144.99;72.68;52301.34;5050438;28;20531;-65
2023/04/22 02:38:09;;;;;;;;;;;;;;;-144.99;72.97;52301.34;5057653;28;19970;-65
2023/04/22 02:40:35;;;;;;;;;;;;;;;-144.99;72.75;52354.34;5049685;28;19971;-65
2023/04/22 02:43:02;;;;;;;;;;;;;;;-144.99;72.87;52289.13;5049884;28;19932;-65
2023/04/22 02:45:28;;;;;;;;;;;;;;;-144.99;72.60;52325.81;5049677;28;20397;-65
2023/04/22 02:47:55;;;;;;;;;;;;;;;-144.99;72.40;52303.38;5054133;28;19928;-66
2023/04/22 02:50:23;;;;;;;;;;;;;;;-144.99;72.67;52315.59;5049654;28;19968;-63
2023/04/22 02:52:51;;;;;;;;;;;;;;;-144.99;72.60;52325.81;5049875;28;20358;-63
2023/04/22 02:55:18;;;;;;;;;;;;;;;-144.99;72.68;52329.88;5058148;28;20001;-63
2023/04/22 02:57:44;;;;;;;;;;;;;;;-144.99;72.81;52333.94;5055509;28;19978;-63
2023/04/22 03:00:12;;;;;;;;;;;;;;;-144.99;72.91;52303.38;5049519;28;19944;-63
2023/04/22 03:02:38;;;;;;;;;;;;;;;-144.99;72.44;52338.03;5049252;28;19956;-63
2023/04/22 03:05:08;;;;;;;;;;;;;;;-144.99;72.60;52346.19;5055252;28;19925;-65
2023/04/22 03:07:36;;;;;;;;;;;;;;;-144.99;72.50;52313.56;5049362;28;19952;-64
2023/04/22 03:10:03;;;;;;;;;;;;;;;-144.99;72.62;52313.56;5055052;28;19987;-65
2023/04/22 03:12:30;;;;;;;;;;;;;;;-144.99;72.61;52289.13;5054343;28;19928;-65
2023/04/22 03:14:56;;;;;;;;;;;;;;;-144.99;72.48;52333.94;5051693;28;19956;-67
2023/04/22 03:17:24;;;;;;;;;;;;;;;-144.99;72.51;52329.88;5052125;28;20440;-66
2023/04/22 03:19:51;;;;;;;;;;;;;;;-144.99;72.66;52317.66;5048927;28;20335;-68
2023/04/22 03:22:17;;;;;;;;;;;;;;;-144.99;72.97;52350.25;5048238;28;20413;-67
2023/04/22 03:24:45;;;;;;;;;;;;;;;-144.99;72.80;52333.94;5049127;28;19957;-68
2023/04/22 03:27:12;;;;;;;;;;;;;;;-144.99;72.84;52309.50;5048716;28;20109;-66
2023/04/22 03:29:39;;;;;;;;;;;;;;;-144.99;72.60;52350.25;5053000;28;20267;-68
2023/04/22 03:32:05;;;;;;;;;;;;;;;-144.99;72.93;52313.56;5056648;28;19990;-67
2023/04/22 03:34:32;;;;;;;;;;;;;;;-144.99;72.92;52319.69;5049713;28;19925;-68
2023/04/22 03:36:59;;;;;;;;;;;;;;;-144.99;72.65;52285.03;5055899;28;19925;-68
2023/04/22 03:39:25;;;;;;;;;;;;;;;-144.99;72.60;52325.81;5049305;28;19956;-68
2023/04/22 03:41:53;;;;;;;;;;;;;;;-144.99;72.58;52338.03;5049999;28;20501;-68
2023/04/22 03:44:19;;;;;;;;;;;;;;;-144.99;72.83;52317.66;5048520;28;20250;-67
2023/04/22 03:46:46;;;;;;;;;;;;;;;-144.99;73.15;52333.94;5057263;28;20035;-67
2023/04/22 03:49:12;;;;;;;;;;;;;;;-144.99;73.11;52297.25;5054078;28;19979;-66
2023/04/22 03:51:39;;;;;;;;;;;;;;;-144.99;73.15;52301.34;5050717;28;19925;-66
2023/04/22 03:54:06;;;;;;;;;;;;;;;-144.99;73.02;52305.41;5051387;28;19986;-67
2023/04/22 03:56:32;;;;;;;;;;;;;;;-144.99;73.16;52309.50;5050866;28;19925;-66
2023/04/22 03:59:00;;;;;;;;;;;;;;;-144.99;73.31;52289.13;5049178;28;19924;-67
2023/04/22 04:01:26;;;;;;;;;;;;;;;-144.99;73.34;52297.25;5061029;28;19968;-66
2023/04/22 04:03:53;;;;;;;;;;;;;;;-144.99;73.17;52313.56;5050025;28;19936;-70
2023/04/22 04:06:20;;;;;;;;;;;;;;;-144.99;73.38;52305.41;5049583;28;20055;-70
2023/04/22 04:08:47;;;;;;;;;;;;;;;-144.99;73.42;52325.81;5048494;28;20685;-67
2023/04/22 04:11:13;;;;;;;;;;;;;;;-144.99;73.46;52297.25;5050094;28;19971;-69
2023/04/22 04:13:40;;;;;;;;;;;;;;;-144.99;73.57;52301.34;5052221;28;19971;-69
2023/04/22 04:16:08;;;;;;;;;;;;;;;-144.99;73.81;52329.88;5047923;28;19978;-71
2023/04/22 04:18:35;;;;;;;;;;;;;;;-144.99;73.77;52291.16;5048577;28;19996;-64
2023/04/22 04:21:02;;;;;;;;;;;;;;;-144.99;73.55;52313.56;5050462;28;19929;-64
2023/04/22 04:23:28;;;;;;;;;;;;;;;-144.99;73.47;52329.88;5049765;28;19971;-64
2023/04/22 04:25:55;;;;;;;;;;;;;;;-144.99;73.45;52309.50;5050852;28;20451;-64
2023/04/22 04:28:22;;;;;;;;;;;;;;;-144.99;73.67;52309.50;5048131;28;19939;-66
2023/04/22 04:30:48;;;;;;;;;;;;;;;-144.99;73.57;52301.34;5051194;28;19971;-63
2023/04/22 04:33:16;;;;;;;;;;;;;;;-144.99;73.77;52338.03;5048557;28;19929;-66
2023/04/22 04:35:43;;;;;;;;;;;;;;;-144.99;73.55;52350.25;5065423;28;19924;-63
2023/04/22 04:38:10;;;;;;;;;;;;;;;-144.99;73.63;52285.03;5048191;28;19935;-66
2023/04/22 04:40:37;;;;;;;;;;;;;;;-144.99;73.68;52289.13;5055498;28;19947;-65
2023/04/22 04:43:07;;;;;;;;;;;;;;;-144.99;73.66;52293.19;5052244;28;19937;-67
2023/04/22 04:45:35;;;;;;;;;;;;;;;-144.99;73.65;52329.88;5053326;28;20002;-66
2023/04/22 04:48:01;;;;;;;;;;;;;;;-144.99;73.40;52350.25;5047943;28;20015;-67
2023/04/22 04:50:30;;;;;;;;;;;;;;;-144.99;73.39;52307.47;5049655;28;20432;-68
2023/04/22 04:52:56;;;;;;;;;;;;;;;-144.99;73.75;52305.41;5051633;28;19956;-68
2023/04/22 04:55:23;;;;;;;;;;;;;;;-144.99;73.70;52276.88;5055073;28;20436;-68
2023/04/22 04:57:50;;;;;;;;;;;;;;;-144.99;73.63;52289.13;5052348;28;19929;-68
2023/04/22 05:00:16;;;;;;;;;;;;;;;-144.99;73.51;52297.25;5047490;28;20041;-70
2023/04/22 05:02:43;;;;;;;;;;;;;;;-144.99;73.24;52321.72;5047697;28;19925;-68
2023/04/22 05:05:10;;;;;;;;;;;;;;;-144.99;73.10;52336.00;5061108;28;19924;-68
2023/04/22 05:07:38;;;;;;;;;;;;;;;-144.99;73.06;52301.34;5049896;28;20342;-66
2023/04/22 05:10:05;;;;;;;;;;;;;;;-144.99;72.97;52358.41;5056187;28;20066;-67
2023/04/22 05:12:31;;;;;;;;;;;;;;;-144.99;73.06;52291.16;5058346;28;19983;-70
2023/04/22 05:14:58;;;;;;;;;;;;;;;-144.99;72.99;52301.34;5063917;28;20216;-71
2023/04/22 05:17:24;;;;;;;;;;;;;;;-144.99;73.22;52305.41;5053995;28;20189;-69
2023/04/22 05:19:51;;;;;;;;;;;;;;;-144.99;73.00;52321.72;5054684;28;19928;-67
2023/04/22 05:22:18;;;;;;;;;;;;;;;-144.99;72.93;52301.34;5061180;28;20397;-65
2023/04/22 05:24:45;;;;;;;;;;;;;;;-144.99;72.48;52313.56;5061611;28;19925;-65
2023/04/22 05:27:12;;;;;;;;;;;;;;;-144.99;72.45;52248.34;5062986;28;19944;-65
2023/04/22 05:29:39;;;;;;;;;;;;;;;-144.99;72.29;52297.25;5066797;28;20443;-64
2023/04/22 05:32:06;;;;;;;;;;;;;;;-144.99;72.45;52276.88;5058920;28;19932;-63
2023/04/22 05:34:34;;;;;;;;;;;;;;;-144.99;73.64;52317.66;5058463;28;19963;-63
2023/04/22 05:37:00;;;;;;;;;;;;;;;-144.99;73.73;52256.50;5057285;28;19931;-64
2023/04/22 05:39:27;;;;;;;;;;;;;;;-144.99;72.52;52297.25;5056519;28;19978;-65
2023/04/22 05:41:55;;;;;;;;;;;;;;;-144.99;72.17;52278.91;5060543;28;19925;-65
2023/04/22 05:44:21;;;;;;;;;;;;;;;-144.99;71.92;52297.25;5055823;28;19924;-66
2023/04/22 05:46:51;;;;;;;;;;;;;;;-144.99;71.61;52278.91;5065720;28;20283;-64
2023/04/22 05:49:17;;;;;;;;;;;;;;;-144.99;71.48;52268.72;5062680;28;19967;-65
2023/04/22 05:51:44;;;;;;;;;;;;;;;-144.99;71.48;52240.19;5057149;28;19924;-64
2023/04/22 05:54:10;;;;;;;;;;;;;;;-144.99;71.34;52280.97;5058204;28;19965;-66
2023/04/22 05:56:37;;;;;;;;;;;;;;;-144.99;71.43;52295.22;5053798;28;20341;-65
2023/04/22 05:59:05;;;;;;;;;;;;;;;-144.99;70.98;52240.19;5053971;28;20305;-67
2023/04/22 06:01:31;;;;;;;;;;;;;;;-144.99;70.88;52260.56;5054176;28;19931;-68
2023/04/22 06:03:58;;;;;;;;;;;;;;;-144.99;71.01;52283.00;5057096;28;20471;-68
2023/04/22 06:06:24;;;;;;;;;;;;;;;-144.99;70.87;52242.22;5060953;28;20030;-68
2023/04/22 06:08:51;;;;;;;;;;;;;;;-144.99;70.75;52252.44;5055231;28;19994;-69
2023/04/22 06:11:18;;;;;;;;;;;;;;;-144.99;70.44;52276.88;5060020;28;19936;-68
2023/04/22 06:13:44;;;;;;;;;;;;;;;-144.99;70.15;52207.59;5059414;28;19925;-71
2023/04/22 06:16:12;;;;;;;;;;;;;;;-144.99;70.10;52276.88;5058150;28;20010;-69
2023/04/22 06:18:38;;;;;;;;;;;;;;;-144.99;70.08;52283.00;5058044;28;19978;-71
2023/04/22 06:21:05;;;;;;;;;;;;;;;-144.99;69.91;52272.81;5058699;28;20415;-68
2023/04/22 06:23:32;;;;;;;;;;;;;;;-144.99;69.58;52321.72;5063588;28;20255;-67
2023/04/22 06:26:00;;;;;;;;;;;;;;;-144.99;69.35;52266.69;5059557;28;19951;-74
2023/04/22 06:28:26;;;;;;;;;;;;;;;-144.99;69.39;52232.03;5060070;28;19936;-79
2023/04/22 06:30:53;;;;;;;;;;;;;;;-144.99;69.05;52264.66;5056677;28;20248;-78
2023/04/22 06:33:21;;;;;;;;;;;;;;;-144.99;69.00;52244.28;5051049;28;19925;-78
2023/04/22 06:35:48;;;;;;;;;;;;;;;-144.99;68.93;52244.28;5057838;28;20373;-78
2023/04/22 06:38:14;;;;;;;;;;;;;;;-144.99;68.63;52256.50;5054068;28;19928;-77
2023/04/22 06:40:42;;;;;;;;;;;;;;;-144.99;68.61;52240.19;5055178;28;19975;-77
2023/04/22 06:43:08;;;;;;;;;;;;;;;-144.99;68.54;52248.34;5052885;28;19925;-75
2023/04/22 06:45:35;;;;;;;;;;;;;;;-144.99;68.76;52232.03;5053433;28;19986;-77
2023/04/22 06:48:01;;;;;;;;;;;;;;;-144.99;68.70;52199.44;5051300;28;19999;-75
2023/04/22 06:50:29;;;;;;;;;;;;;;;-144.99;68.53;52219.81;5058217;28;19925;-76
2023/04/22 06:52:56;;;;;;;;;;;;;;;-144.99;68.34;52240.19;5059076;28;20415;-72
2023/04/22 06:55:22;;;;;;;;;;;;;;;-144.99;68.58;52272.81;5052159;28;19940;-71
2023/04/22 06:57:49;;;;;;;;;;;;;;;-144.99;68.50;52248.34;5049753;28;20346;-72
2023/04/22 07:00:16;;;;;;;;;;;;;;;-144.99;67.87;52268.72;5059985;28;19933;-71
2023/04/22 07:02:43;;;;;;;;;;;;;;;-144.99;68.04;52244.28;5055670;28;19994;-66
2023/04/22 07:05:09;;;;;;;;;;;;;;;-144.99;68.21;52266.69;5057312;28;20009;-71
2023/04/22 07:07:37;;;;;;;;;;;;;;;-144.99;68.09;52246.31;5062016;28;20394;-66
2023/04/22 07:10:04;;;;;;;;;;;;;;;-144.99;68.14;52260.56;5055974;28;19929;-80
2023/04/22 07:12:31;;;;;;;;;;;;;;;-144.99;67.91;52256.50;5049433;28;20378;-73
2023/04/22 07:14:57;;;;;;;;;;;;;;;-144.99;68.07;52252.44;5049709;28;20041;-69
2023/04/22 07:17:24;;;;;;;;;;;;;;;-144.99;67.84;52236.13;5051804;28;19963;-74
2023/04/22 07:19:50;;;;;;;;;;;;;;;-144.99;67.59;52248.34;5063008;28;19960;-70
2023/04/22 07:22:17;;;;;;;;;;;;;;;-144.99;67.89;52232.03;5049533;28;19933;-75
2023/04/22 07:24:45;;;;;;;;;;;;;;;-144.99;67.02;52211.66;5051965;28;20022;-76
2023/04/22 07:27:11;;;;;;;;;;;;;;;-144.99;67.52;52248.34;5051215;28;19978;-73
2023/04/22 07:29:38;;;;;;;;;;;;;;;-144.99;67.43;52248.34;5049658;28;20047;-72
2023/04/22 07:32:05;;;;;;;;;;;;;;;-144.99;67.30;52232.03;5053635;28;19987;-73
2023/04/22 07:34:32;;;;;;;;;;;;;;;-144.99;67.48;52195.34;5049199;28;20020;-75
2023/04/22 07:36:58;;;;;;;;;;;;;;;-144.99;67.38;52223.88;5049395;28;19956;-74
2023/04/22 07:39:25;;;;;;;;;;;;;;;-144.99;67.26;52199.44;5049700;28;19929;-75
2023/04/22 07:41:55;;;;;;;;;;;;;;;-144.99;67.11;52195.34;5048587;28;20020;-74
2023/04/22 07:44:21;;;;;;;;;;;;;;;-144.99;67.11;52223.88;5054544;28;20451;-75
2023/04/22 07:46:49;;;;;;;;;;;;;;;-144.99;67.13;52191.28;5053902;28;19955;-69
2023/04/22 07:49:16;;;;;;;;;;;;;;;-144.99;66.59;52199.44;5049045;28;19925;-68
2023/04/22 07:51:44;;;;;;;;;;;;;;;-144.99;66.53;52179.06;5050522;28;19924;-69
2023/04/22 07:54:10;;;;;;;;;;;;;;;-144.99;66.44;52219.81;5057138;28;19978;-66
2023/04/22 07:56:37;;;;;;;;;;;;;;;-144.99;66.20;52172.94;5048899;28;20007;-67
2023/04/22 07:59:05;;;;;;;;;;;;;;;-144.99;66.19;52191.28;5048416;28;19933;-69
2023/04/22 08:01:31;;;;;;;;;;;;;;;-144.99;66.38;52195.34;5052108;28;20363;-66
2023/04/22 08:03:58;;;;;;;;;;;;;;;-144.99;66.16;52203.50;5055570;28;19924;-66
2023/04/22 08:06:24;;;;;;;;;;;;;;;-144.99;65.80;52170.91;5048733;28;19974;-65
2023/04/22 08:08:51;;;;;;;;;;;;;;;-144.99;65.89;52166.81;5048171;28;20218;-66
2023/04/22 08:11:17;;;;;;;;;;;;;;;-144.99;65.98;52183.13;5047766;28;20021;-63
2023/04/22 08:13:44;;;;;;;;;;;;;;;-144.99;66.64;52191.28;5050772;28;19951;-65
2023/04/22 08:16:12;;;;;;;;;;;;;;;-144.99;66.82;52248.34;5052980;28;20301;-68
2023/04/22 08:18:38;;;;;;;;;;;;;;;-144.99;66.41;52203.50;5048245;28;20350;-68
2023/04/22 08:21:05;;;;;;;;;;;;;;;-144.99;66.50;52207.59;5048034;28;19986;-68
2023/04/22 08:23:32;;;;;;;;;;;;;;;-144.99;66.84;52215.75;5051280;28;20013;-67
2023/04/22 08:25:58;;;;;;;;;;;;;;;-144.99;67.26;52219.81;5048768;28;20463;-67
2023/04/22 08:28:25;;;;;;;;;;;;;;;-144.99;67.32;52203.50;5048362;28;19956;-67
2023/04/22 08:30:51;;;;;;;;;;;;;;;-144.99;67.17;52195.34;5053417;28;19928;-67
2023/04/22 08:33:19;;;;;;;;;;;;;;;-144.99;66.59;52219.81;5055745;28;20559;-67
2023/04/22 08:35:46;;;;;;;;;;;;;;;-144.99;66.55;52223.88;5053450;28;19925;-67
2023/04/22 08:38:12;;;;;;;;;;;;;;;-144.99;66.63;52195.34;5054968;28;19933;-68
2023/04/22 08:40:40;;;;;;;;;;;;;;;-144.99;66.61;52199.44;5051550;28;20404;-67
2023/04/22 08:43:07;;;;;;;;;;;;;;;-144.99;66.67;52199.44;5048479;28;20403;-67
2023/04/22 08:45:34;;;;;;;;;;;;;;;-144.99;66.50;52219.81;5047691;28;19932;-64
2023/04/22 08:48:00;;;;;;;;;;;;;;;-144.99;66.41;52170.91;5061933;28;19928;-64
2023/04/22 08:50:29;;;;;;;;;;;;;;;-144.99;66.18;52183.13;5048887;28;20010;-68
2023/04/22 08:52:55;;;;;;;;;;;;;;;-144.99;66.13;52170.91;5047694;28;19978;-68
2023/04/22 08:55:22;;;;;;;;;;;;;;;-144.99;65.72;52164.78;5050691;28;20345;-69
2023/04/22 08:57:49;;;;;;;;;;;;;;;-144.99;65.95;52187.19;5052864;28;19932;-69
2023/04/22 09:00:17;;;;;;;;;;;;;;;-144.99;65.89;52195.34;5058862;28;19924;-69
2023/04/22 09:02:44;;;;;;;;;;;;;;;-144.99;65.81;52187.19;5053089;28;19933;-68
2023/04/22 09:05:13;;;;;;;;;;;;;;;-144.99;66.02;52187.19;5048552;28;19933;-69
2023/04/22 09:07:41;;;;;;;;;;;;;;;-144.99;65.78;52179.06;5052547;28;20005;-69
2023/04/22 09:10:11;;;;;;;;;;;;;;;-144.99;65.64;52183.13;5045695;28;19932;-69
2023/04/22 09:12:38;;;;;;;;;;;;;;;-144.99;66.08;52166.81;5049941;28;19932;-68
2023/04/22 09:15:07;;;;;;;;;;;;;;;-144.99;65.71;52195.34;5049369;28;19924;-69
2023/04/22 09:17:36;;;;;;;;;;;;;;;-144.99;65.52;52172.94;5043694;28;19936;-69
2023/04/22 09:20:05;;;;;;;;;;;;;;;-144.99;65.41;52189.25;5050433;28;19974;-69
2023/04/22 09:22:37;;;;;;;;;;;;;;;-144.99;65.48;52170.91;5050440;28;19982;-68
2023/04/22 09:25:06;;;;;;;;;;;;;;;-144.99;65.34;52170.91;5051173;28;19961;-70
2023/04/22 09:27:32;;;;;;;;;;;;;;;-144.99;65.23;52195.34;5046566;28;19929;-67
2023/04/22 09:29:59;;;;;;;;;;;;;;;-144.99;65.05;52179.06;5060060;28;19929;-67
2023/04/22 09:32:25;;;;;;;;;;;;;;;-144.99;65.02;52158.66;5063674;28;19929;-68
2023/04/22 09:34:54;;;;;;;;;;;;;;;-144.99;65.17;52138.28;5061423;28;20328;-70
2023/04/22 09:37:22;;;;;;;;;;;;;;;-144.99;65.23;52174.97;5052597;28;20011;-68
2023/04/22 09:39:49;;;;;;;;;;;;;;;-144.99;65.01;52154.59;5052109;28;19925;-70
2023/04/22 09:42:18;;;;;;;;;;;;;;;-144.99;64.72;52136.25;5065637;28;20034;-70
2023/04/22 09:44:45;;;;;;;;;;;;;;;-144.99;64.72;52154.59;5055027;28;19971;-70
2023/04/22 09:47:11;;;;;;;;;;;;;;;-144.99;64.33;52134.22;5053559;28;20015;-70
2023/04/22 09:49:38;;;;;;;;;;;;;;;-144.99;63.91;52132.19;5055174;28;19936;-70
2023/04/22 09:52:05;;;;;;;;;;;;;;;-144.99;64.00;52146.44;5055798;28;20023;-70
2023/04/22 09:54:31;;;;;;;;;;;;;;;-144.99;64.14;52124.03;5055174;28;19928;-70
2023/04/22 09:56:58;;;;;;;;;;;;;;;-144.99;63.99;52134.22;5055310;28;20682;-70
2023/04/22 09:59:27;;;;;;;;;;;;;;;-144.99;63.62;52101.59;5058491;28;19924;-68
2023/04/22 10:01:56;;;;;;;;;;;;;;;-144.99;63.53;52081.22;5051450;28;19933;-72
2023/04/22 10:04:24;;;;;;;;;;;;;;;-144.99;63.19;52111.78;5053019;28;19936;-68
2023/04/22 10:06:51;;;;;;;;;;;;;;;-144.99;63.39;52093.44;5058036;28;19925;-69
2023/04/22 10:09:18;;;;;;;;;;;;;;;-144.99;63.01;52093.44;5055400;28;19931;-69
2023/04/22 10:11:44;;;;;;;;;;;;;;;-144.99;62.68;52101.59;5056201;28;20341;-67
2023/04/22 10:14:12;;;;;;;;;;;;;;;-144.99;62.35;52091.41;5056213;28;19987;-70
2023/04/22 10:16:41;;;;;;;;;;;;;;;-144.99;62.58;52077.16;5056132;28;19936;-68
2023/04/22 10:19:09;;;;;;;;;;;;;;;-144.99;61.84;52064.91;5062864;28;19928;-68
2023/04/22 10:21:36;;;;;;;;;;;;;;;-144.99;61.92;52097.53;5059204;28;19925;-69
2023/04/22 10:24:03;;;;;;;;;;;;;;;-144.99;62.18;52089.38;5063955;28;20142;-70
2023/04/22 10:26:40;;;;;;;;;;;;;;;-144.99;62.10;52097.53;5057796;28;20002;-72
2023/04/22 10:29:08;;;;;;;;;;;;;;;-144.99;62.38;52093.44;5056072;28;19932;-68
2023/04/22 10:31:34;;;;;;;;;;;;;;;-144.99;62.02;52089.38;5059742;28;19954;-67
2023/04/22 10:34:13;;;;;;;;;;;;;;;-144.99;61.86;52044.53;5056273;28;19963;-67
2023/04/22 10:36:59;;;;;;;;;;;;;;;-144.99;62.01;52048.63;5059128;28;19978;-68
2023/04/22 10:39:26;;;;;;;;;;;;;;;-144.99;61.59;52024.16;5058931;28;19928;-68
2023/04/22 10:42:27;;;;;;;;;;;;;;;-144.99;61.38;52036.38;5055248;28;19929;-68
2023/04/22 10:45:01;;;;;;;;;;;;;;;-144.99;61.72;52060.84;5052638;28;19924;-71
2023/04/22 10:47:28;;;;;;;;;;;;;;;-144.99;61.45;52024.16;5053729;28;19928;-69
2023/04/22 10:50:31;;;;;;;;;;;;;;;-144.99;61.11;52071.03;5060383;28;20429;-68
2023/04/22 10:56:33;;;;;;;;;;;;;;;-144.99;62.17;52020.09;4986281;28;19936;-69
2023/04/22 10:59:16;;;;;;;;;;;;;;;-144.99;62.36;52024.16;4991028;28;19929;-68
2023/04/22 11:01:43;;;;;;;;;;;;;;;-144.99;62.01;51999.69;5030002;28;19932;-68
2023/04/22 11:04:42;;;;;;;;;;;;;;;-144.99;62.36;52032.31;5026797;28;20038;-68
2023/04/22 11:09:45;;;;;;;;;;;;;;;-144.99;62.30;51979.31;5093398;22;20012;-79
2023/04/22 11:12:30;;;;;;;;;;;;;;;-144.99;62.04;52042.50;5066446;28;20331;-76
2023/04/22 11:14:58;;;;;;;;;;;;;;;-144.99;61.81;52026.19;5045271;28;19999;-76
2023/04/22 11:17:26;;;;;;;;;;;;;;;-144.99;62.40;52109.75;5030969;28;19933;-75
2023/04/22 11:19:55;;;;;;;;;;;;;;;-144.99;62.11;51983.41;4932356;28;19974;-78
2023/04/22 11:22:22;;;;;;;;;;;;;;;-144.99;61.91;52093.44;4807486;29;19945;-79
2023/04/22 11:24:53;;;;;;;;;;;;;;;-144.99;61.89;52018.03;4749996;29;19938;-78
2023/04/22 11:27:25;;;;;;;;;;;;;;;-144.99;62.79;51973.22;4496431;30;1848472;-75
2023/04/22 11:30:01;;;;;;;;;;;;;;;-144.99;62.24;52028.22;4443454;31;19947;-76
2023/04/22 11:32:27;;;;;;;;;;;;;;;-144.99;61.94;51991.56;4381338;32;20012;-74
2023/04/22 11:34:54;;;;;;;;;;;;;;;-144.99;62.24;51991.56;4397696;32;20364;-74
2023/04/22 11:37:20;;;;;;;;;;;;;;;-144.99;61.38;51995.63;4397350;32;20000;-77
2023/04/22 11:39:47;;;;;;;;;;;;;;;-144.99;62.81;51995.63;4396230;32;19942;-77
2023/04/22 11:42:13;;;;;;;;;;;;;;;-144.99;62.16;51995.63;4399374;32;20054;-76
2023/04/22 11:44:40;;;;;;;;;;;;;;;-144.99;61.70;51971.16;4405627;32;20438;-73
2023/04/22 11:47:08;;;;;;;;;;;;;;;-144.99;61.63;52007.84;4399805;32;19945;-72
2023/04/22 11:49:35;;;;;;;;;;;;;;;-144.99;61.50;51979.31;4405234;32;20503;-79
2023/04/22 11:52:01;;;;;;;;;;;;;;;-144.99;61.73;51956.91;4396796;32;19996;-77
2023/04/22 11:54:32;;;;;;;;;;;;;;;-144.99;61.61;51952.81;4405705;32;19941;-74
2023/04/22 11:57:01;;;;;;;;;;;;;;;-144.99;61.20;51967.09;4402726;32;20415;-75
2023/04/22 11:59:27;;;;;;;;;;;;;;;-144.99;60.79;51958.94;4413512;27;20319;-71
2023/04/22 12:01:54;;;;;;;;;;;;;;;-144.99;61.48;52005.81;4403885;32;19999;-74
2023/04/22 12:04:23;;;;;;;;;;;;;;;-144.99;60.56;51983.41;4407250;32;19984;-70
2023/04/22 12:06:51;;;;;;;;;;;;;;;-144.99;61.50;52024.16;4413803;32;19940;-71
2023/04/22 12:09:17;;;;;;;;;;;;;;;-144.99;61.47;51987.47;4421440;32;19940;-71
2023/04/22 12:11:45;;;;;;;;;;;;;;;-144.99;60.16;51971.16;4420926;32;19945;-71
2023/04/22 12:14:11;;;;;;;;;;;;;;;-144.99;60.87;52020.09;4425135;32;19972;-70
2023/04/22 12:16:41;;;;;;;;;;;;;;;-144.99;61.11;52032.31;4420438;32;19937;-71
2023/04/22 12:19:08;;;;;;;;;;;;;;;-144.99;61.09;52062.88;4422724;32;20023;-70
2023/04/22 12:21:36;;;;;;;;;;;;;;;-144.99;61.63;52109.75;4419656;32;19937;-70
2023/04/22 12:24:09;;;;;;;;;;;;;;;-144.99;61.64;52073.06;4420451;32;20268;-71
2023/04/22 12:26:36;;;;;;;;;;;;;;;-144.99;62.02;52022.13;4466077;31;20393;-71
2023/04/22 12:29:03;;;;;;;;;;;;;;;-144.99;61.13;52105.69;4574426;30;1838218;-69
2023/04/22 12:31:29;;;;;;;;;;;;;;;-144.99;61.59;52079.19;4686272;30;20014;-70
2023/04/22 12:33:56;;;;;;;;;;;;;;;-144.99;61.43;52085.31;4719141;30;20473;-70